createdAt,value
2023-12-11T00:01:34.645Z,1.05
2023-12-11T00:04:04.181Z,1.27
2023-12-11T00:06:32.253Z,1.30
2023-12-11T00:09:00.202Z,1.23
2023-12-11T00:11:28.086Z,1.27
2023-12-11T00:13:55.982Z,1.40
2023-12-11T00:16:24.619Z,0.80
2023-12-11T00:18:52.613Z,1.00
2023-12-11T00:21:21.929Z,1.48
2023-12-11T00:23:49.752Z,0.90
2023-12-11T00:26:18.470Z,1.30
2023-12-11T00:28:48.338Z,1.45
2023-12-11T00:31:16.288Z,1.00
2023-12-11T00:33:44.471Z,0.75
2023-12-11T00:36:12.668Z,1.05
2023-12-11T00:38:42.009Z,0.57
2023-12-11T00:41:09.994Z,0.40
2023-12-11T00:43:44.905Z,0.65
2023-12-11T00:46:15.524Z,0.80
2023-12-11T00:48:43.753Z,0.70
2023-12-11T00:51:17.407Z,0.50
2023-12-11T00:53:46.872Z,0.73
2023-12-11T00:56:15.140Z,0.75
2023-12-11T00:58:42.985Z,1.08
2023-12-11T01:01:11.015Z,0.95
2023-12-11T01:03:39.909Z,0.73
2023-12-11T01:06:08.594Z,0.57
2023-12-11T01:08:39.768Z,0.70
2023-12-11T01:11:09.727Z,0.73
2023-12-11T01:13:37.872Z,0.88
2023-12-11T01:16:06.869Z,0.90
2023-12-11T01:18:34.893Z,0.50
2023-12-11T01:21:02.812Z,1.15
2023-12-11T01:23:30.676Z,0.77
2023-12-11T01:25:58.511Z,1.20
2023-12-11T01:28:27.742Z,0.52
2023-12-11T01:30:55.739Z,0.95
2023-12-11T01:33:23.862Z,1.02
2023-12-11T01:35:51.867Z,0.75
2023-12-11T01:38:19.821Z,0.60
2023-12-11T01:40:47.825Z,0.47
2023-12-11T01:43:18.652Z,0.70
2023-12-11T01:46:04.187Z,0.95
2023-12-11T01:48:33.347Z,0.73
2023-12-11T01:51:01.721Z,0.95
2023-12-11T01:53:30.194Z,1.08
2023-12-11T01:55:58.581Z,0.63
2023-12-11T01:58:26.812Z,0.73
2023-12-11T02:00:56.216Z,0.73
2023-12-11T02:03:24.603Z,0.38
2023-12-11T02:05:53.979Z,0.73
2023-12-11T02:08:22.055Z,0.98
2023-12-11T02:10:51.180Z,0.60
2023-12-11T02:13:19.337Z,1.92
2023-12-11T02:15:49.039Z,1.27
2023-12-11T02:18:19.016Z,0.70
2023-12-11T02:20:47.471Z,0.50
2023-12-11T02:23:22.945Z,1.10
2023-12-11T02:26:02.891Z,0.57
2023-12-11T02:28:30.783Z,0.85
2023-12-11T02:30:58.619Z,0.82
2023-12-11T02:33:26.537Z,0.65
2023-12-11T02:35:54.358Z,0.90
2023-12-11T02:38:22.260Z,0.75
2023-12-11T02:40:50.232Z,0.73
2023-12-11T02:43:19.435Z,0.47
2023-12-11T02:45:47.735Z,1.10
2023-12-11T02:48:17.318Z,0.50
2023-12-11T02:50:45.298Z,0.30
2023-12-11T02:53:13.349Z,1.25
2023-12-11T02:55:41.190Z,0.47
2023-12-11T02:58:09.124Z,0.45
2023-12-11T03:00:38.451Z,0.60
2023-12-11T03:03:06.683Z,0.50
2023-12-11T03:05:35.367Z,0.20
2023-12-11T03:08:04.981Z,0.20
2023-12-11T03:10:33.325Z,0.32
2023-12-11T03:13:01.385Z,0.22
2023-12-11T03:15:29.418Z,0.65
2023-12-11T03:17:58.678Z,1.15
2023-12-11T03:20:26.910Z,0.38
2023-12-11T03:22:54.776Z,0.80
2023-12-11T03:25:23.093Z,0.28
2023-12-11T03:27:51.018Z,0.10
2023-12-11T03:30:18.913Z,0.30
2023-12-11T03:32:47.036Z,0.52
2023-12-11T03:35:16.372Z,0.20
2023-12-11T03:37:44.235Z,0.20
2023-12-11T03:40:13.761Z,0.60
2023-12-11T03:42:41.709Z,0.30
2023-12-11T03:45:10.408Z,0.70
2023-12-11T03:47:38.298Z,0.60
2023-12-11T03:50:07.931Z,0.65
2023-12-11T03:52:37.125Z,0.40
2023-12-11T03:55:06.160Z,0.45
2023-12-11T03:57:34.336Z,0.50
2023-12-11T04:00:02.258Z,0.93
2023-12-11T04:02:30.265Z,1.00
2023-12-11T04:04:58.229Z,0.70
2023-12-11T04:07:26.215Z,1.42
2023-12-11T04:09:55.657Z,0.80
2023-12-11T04:12:23.789Z,0.52
2023-12-11T04:14:51.603Z,0.77
2023-12-11T04:17:19.457Z,0.65
2023-12-11T04:19:47.383Z,0.65
2023-12-11T04:22:15.446Z,0.20
2023-12-11T04:24:43.376Z,0.28
2023-12-11T04:27:12.574Z,0.32
2023-12-11T04:29:40.408Z,0.50
2023-12-11T04:32:08.309Z,0.40
2023-12-11T04:34:36.197Z,0.68
2023-12-11T04:37:04.484Z,0.47
2023-12-11T04:39:32.629Z,0.40
2023-12-11T04:42:00.483Z,0.82
2023-12-11T04:44:29.808Z,0.60
2023-12-11T04:46:57.648Z,0.28
2023-12-11T04:49:25.550Z,0.57
2023-12-11T04:51:53.495Z,0.65
2023-12-11T04:54:21.461Z,0.50
2023-12-11T04:56:49.305Z,0.43
2023-12-11T04:59:17.164Z,0.30
2023-12-11T05:01:46.419Z,0.50
2023-12-11T05:04:14.396Z,0.45
2023-12-11T05:06:42.364Z,0.22
2023-12-11T05:09:10.624Z,0.55
2023-12-11T05:11:38.562Z,0.70
2023-12-11T05:14:06.650Z,0.22
2023-12-11T05:16:34.555Z,0.10
2023-12-11T05:19:07.369Z,0.30
2023-12-11T05:21:35.321Z,0.10
2023-12-11T05:24:03.193Z,0.38
2023-12-11T05:26:31.068Z,1.02
2023-12-11T05:29:01.266Z,0.68
2023-12-11T05:31:29.240Z,1.08
2023-12-11T05:33:57.210Z,0.95
2023-12-11T05:36:26.559Z,0.50
2023-12-11T05:38:54.438Z,0.75
2023-12-11T05:41:22.455Z,0.50
2023-12-11T05:43:50.274Z,0.50
2023-12-11T05:46:18.438Z,0.50
2023-12-11T05:48:46.509Z,0.50
2023-12-11T05:51:14.512Z,0.22
2023-12-11T05:53:44.042Z,0.50
2023-12-11T05:56:11.954Z,0.22
2023-12-11T05:58:40.023Z,0.20
2023-12-11T06:01:07.996Z,0.45
2023-12-11T06:03:36.028Z,0.40
2023-12-11T06:06:03.957Z,0.63
2023-12-11T06:08:31.827Z,0.63
2023-12-11T06:11:01.009Z,0.30
2023-12-11T06:13:28.835Z,0.20
2023-12-11T06:15:56.753Z,0.45
2023-12-11T06:18:24.686Z,0.70
2023-12-11T06:20:52.590Z,0.38
2023-12-11T06:23:20.560Z,0.20
2023-12-11T06:25:48.422Z,0.30
2023-12-11T06:28:17.657Z,0.20
2023-12-11T06:30:45.709Z,0.10
2023-12-11T06:33:13.668Z,0.20
2023-12-11T06:35:41.540Z,0.20
2023-12-11T06:38:09.413Z,0.15
2023-12-11T06:40:37.308Z,0.25
2023-12-11T06:43:06.521Z,0.10
2023-12-11T06:45:37.984Z,0.10
2023-12-11T06:48:07.569Z,0.35
2023-12-11T06:50:36.226Z,0.32
2023-12-11T06:53:04.087Z,0.20
2023-12-11T06:55:31.983Z,0.13
2023-12-11T06:57:59.855Z,0.45
2023-12-11T07:00:27.928Z,0.30
2023-12-11T07:02:57.162Z,0.22
2023-12-11T07:05:26.405Z,0.25
2023-12-11T07:07:55.023Z,0.20
2023-12-11T07:10:22.958Z,0.32
2023-12-11T07:12:51.147Z,0.20
2023-12-11T07:15:20.657Z,0.30
2023-12-11T07:17:48.699Z,0.47
2023-12-11T07:20:17.986Z,0.70
2023-12-11T07:22:47.514Z,0.30
2023-12-11T07:25:15.617Z,0.28
2023-12-11T07:27:43.995Z,0.73
2023-12-11T07:30:15.384Z,0.73
2023-12-11T07:32:43.417Z,0.47
2023-12-11T07:35:12.694Z,0.73
2023-12-11T07:37:43.327Z,0.98
2023-12-11T07:40:13.938Z,1.40
2023-12-11T07:42:42.328Z,0.80
2023-12-11T07:45:12.847Z,1.10
2023-12-11T07:47:40.836Z,0.65
2023-12-11T07:50:10.473Z,0.63
2023-12-11T07:52:38.438Z,0.50
2023-12-11T07:55:08.528Z,1.15
2023-12-11T07:57:37.079Z,1.50
2023-12-11T08:00:06.382Z,1.10
2023-12-11T08:02:36.494Z,1.23
2023-12-11T08:05:05.050Z,0.90
2023-12-11T08:07:33.252Z,1.25
2023-12-11T08:10:01.614Z,0.82
2023-12-11T08:12:31.961Z,0.90
2023-12-11T08:14:59.806Z,0.82
2023-12-11T08:17:27.728Z,0.75
2023-12-11T08:19:55.793Z,0.65
2023-12-11T08:22:23.822Z,0.55
2023-12-11T08:24:51.931Z,0.60
2023-12-11T08:27:19.777Z,0.30
2023-12-11T08:29:49.005Z,0.52
2023-12-11T08:32:16.880Z,0.30
2023-12-11T08:34:45.987Z,0.20
2023-12-11T08:37:13.905Z,0.52
2023-12-11T08:39:41.768Z,0.10
2023-12-11T08:42:09.634Z,0.55
2023-12-11T08:44:37.506Z,0.80
2023-12-11T08:47:06.977Z,0.90
2023-12-11T08:49:34.937Z,0.90
2023-12-11T08:52:03.189Z,1.02
2023-12-11T08:54:31.125Z,0.75
2023-12-11T08:56:58.968Z,0.70
2023-12-11T08:59:26.813Z,0.93
2023-12-11T09:01:54.797Z,0.38
2023-12-11T09:04:24.171Z,0.52
2023-12-11T09:06:52.127Z,0.45
2023-12-11T09:09:20.050Z,0.52
2023-12-11T09:11:49.781Z,0.68
2023-12-11T09:14:17.737Z,0.20
2023-12-11T09:16:45.624Z,0.60
2023-12-11T09:19:13.553Z,0.80
2023-12-11T09:21:43.144Z,0.60
2023-12-11T09:24:11.855Z,0.77
2023-12-11T09:26:39.760Z,0.80
2023-12-11T09:29:07.664Z,0.30
2023-12-11T09:31:35.552Z,1.25
2023-12-11T09:34:03.934Z,0.60
2023-12-11T09:36:31.913Z,0.82
2023-12-11T09:39:01.121Z,0.55
2023-12-11T09:41:35.697Z,0.55
2023-12-11T09:44:05.184Z,0.93
2023-12-11T09:46:42.926Z,0.93
2023-12-11T09:49:12.301Z,0.60
2023-12-11T09:51:40.659Z,0.65
2023-12-11T09:54:10.622Z,0.90
2023-12-11T09:56:39.914Z,0.57
2023-12-11T09:59:10.102Z,0.80
2023-12-11T10:01:38.971Z,0.60
2023-12-11T10:04:09.159Z,0.45
2023-12-11T10:06:37.087Z,0.20
2023-12-11T10:09:05.287Z,0.22
2023-12-11T10:11:34.974Z,1.40
2023-12-11T10:14:13.530Z,1.75
2023-12-11T10:16:41.413Z,1.70
2023-12-11T10:19:09.563Z,1.25
2023-12-11T10:21:42.705Z,0.95
2023-12-11T10:24:15.279Z,0.70
2023-12-11T10:26:49.504Z,0.60
2023-12-11T10:29:22.658Z,1.10
2023-12-11T10:31:51.269Z,0.70
2023-12-11T10:34:19.714Z,0.77
2023-12-11T10:36:51.928Z,0.85
2023-12-11T10:39:21.001Z,0.47
2023-12-11T10:41:50.648Z,0.70
2023-12-11T10:44:39.916Z,0.35
2023-12-11T10:47:14.922Z,0.68
2023-12-11T10:49:42.929Z,0.75
2023-12-11T10:52:11.006Z,0.70
2023-12-11T10:54:40.046Z,0.93
2023-12-11T10:57:14.639Z,0.77
2023-12-11T10:59:42.655Z,1.00
2023-12-11T11:02:15.431Z,0.93
2023-12-11T11:04:46.489Z,0.57
2023-12-11T11:07:22.585Z,0.57
2023-12-11T11:10:04.755Z,0.68
2023-12-11T11:12:51.025Z,0.55
2023-12-11T11:15:23.344Z,0.55
2023-12-11T11:18:05.099Z,0.50
2023-12-11T11:20:35.085Z,0.45
2023-12-11T11:23:27.824Z,0.40
2023-12-11T11:25:56.318Z,0.82
2023-12-11T11:28:51.418Z,0.43
2023-12-11T11:31:26.724Z,0.55
2023-12-11T11:33:59.465Z,0.22
2023-12-11T11:36:48.594Z,0.30
2023-12-11T11:39:16.774Z,0.10
2023-12-11T11:41:45.654Z,0.32
2023-12-11T11:44:17.289Z,0.20
2023-12-11T11:46:53.688Z,0.10
2023-12-11T11:49:27.985Z,0.40
2023-12-11T11:51:56.545Z,0.45
2023-12-11T11:54:25.771Z,0.25
2023-12-11T11:56:54.536Z,0.30
2023-12-11T11:59:23.682Z,0.43
2023-12-11T12:01:53.721Z,0.22
2023-12-11T12:04:30.131Z,0.20
2023-12-11T12:07:01.184Z,0.10
2023-12-11T12:09:29.872Z,0.13
2023-12-11T12:11:58.914Z,0.20
2023-12-11T12:14:29.237Z,0.08
2023-12-11T12:16:57.182Z,0.45
2023-12-11T12:19:33.478Z,0.50
2023-12-11T12:22:03.499Z,0.10
2023-12-11T12:24:31.944Z,0.45
2023-12-11T12:27:04.117Z,0.10
2023-12-11T12:29:43.511Z,0.35
2023-12-11T12:32:13.896Z,0.32
2023-12-11T12:34:47.289Z,0.28
2023-12-11T12:37:17.430Z,0.20
2023-12-11T12:39:45.560Z,0.30
2023-12-11T12:42:13.371Z,0.20
2023-12-11T12:44:42.760Z,0.52
2023-12-11T12:47:11.607Z,0.20
2023-12-11T12:49:39.619Z,0.65
2023-12-11T12:52:07.755Z,0.40
2023-12-11T12:54:49.660Z,0.30
2023-12-11T12:57:17.643Z,0.32
2023-12-11T12:59:47.091Z,0.20
2023-12-11T13:02:17.929Z,0.30
2023-12-11T13:04:56.607Z,0.20
2023-12-11T13:07:28.011Z,0.20
2023-12-11T13:09:57.552Z,0.10
2023-12-11T13:25:41.399Z,0.10
2023-12-11T13:28:09.222Z,0.20
2023-12-11T13:30:37.429Z,0.10
2023-12-11T13:33:06.105Z,0.17
2023-12-11T13:35:34.154Z,0.65
2023-12-11T13:38:02.007Z,0.10
2023-12-11T13:40:29.902Z,0.32
2023-12-11T13:42:59.346Z,0.17
2023-12-11T13:45:28.643Z,0.10
2023-12-11T13:47:56.464Z,0.20
2023-12-11T13:50:24.345Z,0.50
2023-12-11T13:52:52.106Z,0.20
2023-12-11T13:55:20.261Z,0.40
2023-12-11T13:57:48.103Z,0.10
2023-12-11T14:00:18.500Z,0.00
2023-12-11T14:03:00.580Z,0.08
2023-12-11T14:05:32.141Z,0.10
2023-12-11T14:08:00.367Z,0.10
2023-12-11T14:10:28.226Z,0.35
2023-12-11T14:12:56.318Z,0.10
2023-12-11T14:15:28.658Z,0.10
2023-12-11T14:17:56.638Z,0.30
2023-12-11T14:20:24.576Z,0.20
2023-12-11T14:22:52.737Z,0.13
2023-12-11T14:25:20.728Z,0.10
2023-12-11T14:27:48.704Z,0.10
2023-12-11T14:30:16.871Z,0.00
2023-12-11T14:32:46.125Z,0.10
2023-12-11T14:35:14.104Z,0.20
2023-12-11T14:38:57.729Z,0.10
2023-12-11T14:41:46.343Z,0.13
2023-12-11T14:44:14.389Z,0.30
2023-12-11T14:46:42.310Z,0.52
2023-12-11T14:49:11.762Z,0.20
2023-12-11T14:51:40.810Z,0.20
2023-12-11T14:54:09.691Z,0.10
2023-12-11T14:56:37.534Z,0.22
2023-12-11T14:59:05.400Z,0.20
2023-12-11T15:01:33.437Z,0.08
2023-12-11T15:04:01.343Z,0.30
2023-12-11T15:06:30.456Z,0.30
2023-12-11T15:08:59.314Z,0.10
2023-12-11T15:11:28.642Z,0.10
2023-12-11T15:13:56.892Z,0.20
2023-12-11T15:16:25.093Z,0.10
2023-12-11T15:18:53.197Z,0.55
2023-12-11T15:21:21.880Z,0.30
2023-12-11T15:23:51.027Z,0.40
2023-12-11T15:26:20.386Z,0.22
2023-12-11T15:28:48.797Z,0.50
2023-12-11T15:31:23.031Z,0.22
2023-12-11T15:33:51.463Z,0.40
2023-12-11T15:36:20.277Z,0.25
2023-12-11T15:38:48.370Z,0.20
2023-12-11T15:41:18.433Z,0.20
2023-12-11T15:43:47.720Z,0.10
2023-12-11T15:46:16.873Z,0.30
2023-12-11T15:48:46.745Z,0.38
2023-12-11T15:51:17.281Z,0.30
2023-12-11T15:53:46.279Z,0.10
2023-12-11T15:56:17.035Z,0.10
2023-12-11T15:58:47.412Z,0.20
2023-12-11T16:01:15.810Z,0.10
2023-12-11T16:03:44.082Z,0.20
2023-12-11T16:06:12.300Z,0.10
2023-12-11T16:08:40.197Z,0.10
2023-12-11T16:11:08.312Z,0.20
2023-12-11T16:13:36.080Z,0.20
2023-12-11T16:16:06.199Z,0.05
2023-12-11T16:18:34.386Z,0.20
2023-12-11T16:21:02.238Z,0.30
2023-12-11T16:23:30.017Z,0.10
2023-12-11T16:26:02.998Z,0.20
2023-12-11T16:28:34.441Z,0.20
2023-12-11T16:31:02.610Z,0.10
2023-12-11T16:33:32.307Z,0.22
2023-12-11T16:36:00.321Z,0.13
2023-12-11T16:38:28.239Z,0.28
2023-12-11T16:40:56.054Z,0.22
2023-12-11T16:43:23.877Z,0.30
2023-12-11T16:45:51.779Z,0.15
2023-12-11T16:48:19.624Z,0.25
2023-12-11T16:50:49.259Z,0.20
2023-12-11T16:53:17.109Z,0.13
2023-12-11T16:55:44.912Z,0.10
2023-12-11T16:58:12.798Z,0.38
2023-12-11T17:00:40.621Z,0.20
2023-12-11T17:03:08.573Z,0.30
2023-12-11T17:05:36.749Z,0.25
2023-12-11T17:08:06.509Z,0.20
2023-12-11T17:10:34.451Z,0.10
2023-12-11T17:13:03.506Z,0.22
2023-12-11T17:15:31.351Z,0.35
2023-12-11T17:17:59.293Z,0.30
2023-12-11T17:20:27.111Z,0.10
2023-12-11T17:22:54.886Z,0.20
2023-12-11T17:25:24.116Z,0.10
2023-12-11T17:27:51.921Z,0.10
2023-12-11T17:30:20.032Z,0.03
2023-12-11T17:32:47.827Z,0.20
2023-12-11T17:35:16.178Z,0.17
2023-12-11T17:37:44.026Z,0.10
2023-12-11T17:40:12.458Z,0.10
2023-12-11T17:42:41.618Z,0.10
2023-12-11T17:45:10.351Z,0.13
2023-12-11T17:47:38.144Z,0.10
2023-12-11T17:50:08.637Z,0.40
2023-12-11T17:52:36.681Z,0.10
2023-12-11T17:55:05.699Z,0.40
2023-12-11T17:57:34.105Z,0.10
2023-12-11T18:00:05.736Z,0.45
2023-12-11T18:02:33.574Z,0.50
2023-12-11T18:05:01.408Z,0.55
2023-12-11T18:07:29.720Z,0.30
2023-12-11T18:09:57.817Z,0.10
2023-12-11T18:12:26.157Z,0.25
2023-12-11T18:14:54.037Z,0.47
2023-12-11T18:17:23.206Z,0.40
2023-12-11T18:19:51.156Z,0.20
2023-12-11T18:22:19.177Z,0.10
2023-12-11T18:24:47.027Z,0.20
2023-12-11T18:27:14.862Z,0.10
2023-12-11T18:29:42.660Z,0.22
2023-12-11T18:32:10.563Z,0.38
2023-12-11T18:34:47.578Z,0.10
2023-12-11T18:37:22.172Z,0.20
2023-12-11T18:39:50.318Z,0.20
2023-12-11T18:42:18.101Z,0.55
2023-12-11T18:44:45.911Z,0.40
2023-12-11T18:47:13.705Z,0.13
2023-12-11T18:49:44.377Z,0.30
2023-12-11T18:52:15.422Z,0.20
2023-12-11T18:54:43.878Z,0.10
2023-12-11T18:57:13.005Z,0.40
2023-12-11T18:59:40.851Z,0.50
2023-12-11T19:02:09.101Z,0.40
2023-12-11T19:04:37.244Z,0.38
2023-12-11T19:07:07.082Z,0.30
2023-12-11T19:09:34.886Z,0.52
2023-12-11T19:12:03.438Z,0.40
2023-12-11T19:14:31.226Z,0.70
2023-12-11T19:16:59.046Z,0.30
2023-12-11T19:19:26.972Z,1.17
2023-12-11T19:21:54.826Z,0.55
2023-12-11T19:24:24.668Z,0.60
2023-12-11T19:26:52.468Z,0.60
2023-12-11T19:29:20.287Z,0.28
2023-12-11T19:31:48.212Z,0.35
2023-12-11T19:34:16.667Z,0.68
2023-12-11T19:36:44.898Z,0.43
2023-12-11T19:39:12.945Z,0.55
2023-12-11T19:41:44.833Z,0.57
2023-12-11T19:44:12.596Z,0.25
2023-12-11T19:46:44.820Z,0.20
2023-12-11T19:49:12.875Z,0.68
2023-12-11T19:51:44.033Z,0.43
2023-12-11T19:54:12.127Z,0.30
2023-12-11T19:56:39.999Z,0.20
2023-12-11T19:59:10.136Z,0.10
2023-12-11T20:01:38.158Z,0.20
2023-12-11T20:04:06.792Z,0.52
2023-12-11T20:06:34.929Z,0.10
2023-12-11T20:09:02.908Z,0.40
2023-12-11T20:11:30.737Z,0.20
2023-12-11T20:13:58.595Z,0.30
2023-12-11T20:16:27.849Z,0.22
2023-12-11T20:18:56.122Z,0.60
2023-12-11T20:21:23.920Z,0.43
2023-12-11T20:23:51.726Z,0.10
2023-12-11T20:26:22.403Z,0.13
2023-12-11T20:28:50.234Z,0.10
2023-12-11T20:31:19.449Z,0.20
2023-12-11T20:33:48.892Z,0.30
2023-12-11T20:36:18.404Z,0.30
2023-12-11T20:38:47.223Z,0.50
2023-12-11T20:41:20.497Z,0.20
2023-12-11T20:43:49.012Z,0.32
2023-12-11T20:46:24.251Z,0.40
2023-12-11T20:48:54.967Z,0.20
2023-12-11T20:51:23.964Z,0.40
2023-12-11T20:53:53.372Z,0.17
2023-12-11T20:56:22.608Z,0.47
2023-12-11T20:58:51.838Z,0.32
2023-12-11T21:01:30.155Z,0.35
2023-12-11T21:04:03.324Z,0.30
2023-12-11T21:06:32.714Z,0.25
2023-12-11T21:09:01.136Z,0.32
2023-12-11T21:11:29.731Z,0.35
2023-12-11T21:13:59.464Z,0.40
2023-12-11T21:16:27.331Z,0.30
2023-12-11T21:18:55.358Z,0.80
2023-12-11T21:21:24.895Z,0.30
2023-12-11T21:23:52.812Z,0.77
2023-12-11T21:26:22.902Z,0.32
2023-12-11T21:28:53.178Z,0.30
2023-12-11T21:31:23.305Z,0.32
2023-12-11T21:33:53.103Z,0.35
2023-12-11T21:36:21.199Z,0.40
2023-12-11T21:38:51.213Z,0.20
2023-12-11T21:41:19.468Z,0.20
2023-12-11T21:43:49.186Z,0.20
2023-12-11T21:46:18.634Z,0.45
2023-12-11T21:48:48.755Z,0.40
2023-12-11T21:51:18.646Z,0.30
2023-12-11T21:53:47.711Z,0.17
2023-12-11T21:56:17.105Z,0.20
2023-12-11T21:58:45.280Z,0.17
2023-12-11T22:01:13.139Z,0.22
2023-12-11T22:03:40.990Z,0.10
2023-12-11T22:06:12.640Z,0.30
2023-12-11T22:08:40.431Z,0.35
2023-12-11T22:11:08.226Z,0.45
2023-12-11T22:13:37.392Z,0.10
2023-12-11T22:16:06.822Z,0.17
2023-12-11T22:18:34.835Z,0.25
2023-12-11T22:21:03.478Z,0.30
2023-12-11T22:23:31.276Z,0.30
2023-12-11T22:25:59.195Z,0.17
2023-12-11T22:28:27.037Z,0.47
2023-12-11T22:30:56.228Z,0.40
2023-12-11T22:33:24.025Z,0.60
2023-12-11T22:35:51.820Z,0.50
2023-12-11T22:38:19.610Z,0.20
2023-12-11T22:40:48.029Z,0.35
2023-12-11T22:43:15.931Z,0.47
2023-12-11T22:45:43.722Z,0.30
2023-12-11T22:48:14.860Z,0.50
2023-12-11T22:50:42.711Z,0.20
2023-12-11T22:53:10.527Z,0.65
2023-12-11T22:55:38.355Z,0.43
2023-12-11T22:58:13.856Z,0.10
2023-12-11T23:00:44.558Z,0.20
2023-12-11T23:03:13.799Z,0.15
2023-12-11T23:05:41.752Z,0.10
2023-12-11T23:08:09.592Z,0.40
2023-12-11T23:10:37.517Z,0.10
2023-12-11T23:13:05.389Z,0.40
2023-12-11T23:15:33.254Z,0.20
2023-12-11T23:18:01.081Z,0.40
2023-12-11T23:20:30.255Z,0.20
2023-12-11T23:22:58.084Z,0.40
2023-12-11T23:25:25.938Z,0.10
2023-12-11T23:27:53.776Z,0.22
2023-12-11T23:30:21.561Z,0.22
2023-12-11T23:32:49.387Z,0.13
2023-12-11T23:35:17.259Z,0.10
2023-12-11T23:37:46.392Z,0.40
2023-12-11T23:40:14.635Z,0.20
2023-12-11T23:42:42.412Z,0.10
2023-12-11T23:45:10.782Z,0.10
2023-12-11T23:47:39.169Z,0.17
2023-12-11T23:50:08.672Z,0.10
2023-12-11T23:52:36.518Z,0.10
2023-12-11T23:55:07.071Z,0.28
2023-12-11T23:57:34.931Z,0.10
